createdAt,value
2019-02-07T00:01:03.976Z,186.93
2019-02-07T00:24:25.396Z,184.87
2019-02-07T00:26:54.642Z,188.50
2019-02-07T00:29:23.848Z,148.33
2019-02-07T00:31:53.071Z,154.33
2019-02-07T00:34:22.272Z,167.83
2019-02-07T00:36:51.536Z,147.40
2019-02-07T00:39:21.270Z,156.67
2019-02-07T00:41:50.476Z,131.10
2019-02-07T00:44:19.675Z,120.43
2019-02-07T00:46:48.891Z,147.07
2019-02-07T00:49:18.132Z,136.17
2019-02-07T00:51:47.344Z,130.17
2019-02-07T00:54:16.975Z,128.93
2019-02-07T00:56:46.189Z,142.03
2019-02-07T00:59:15.379Z,129.53
2019-02-07T01:01:44.583Z,123.63
2019-02-07T01:04:13.841Z,116.80
2019-02-07T01:06:43.067Z,124.83
2019-02-07T01:09:12.826Z,131.13
2019-02-07T01:11:42.027Z,131.37
2019-02-07T01:14:11.336Z,131.57
2019-02-07T01:16:40.556Z,125.80
2019-02-07T01:19:09.756Z,141.10
2019-02-07T01:21:38.984Z,141.57
2019-02-07T01:24:08.872Z,139.37
2019-02-07T01:26:38.090Z,146.13
2019-02-07T01:29:07.312Z,137.77
2019-02-07T01:31:36.512Z,124.40
2019-02-07T01:34:05.819Z,128.70
2019-02-07T01:36:35.011Z,129.93
2019-02-07T01:39:07.404Z,133.73
2019-02-07T01:41:36.663Z,133.33
2019-02-07T01:44:05.973Z,136.03
2019-02-07T01:46:35.195Z,137.17
2019-02-07T01:49:04.508Z,130.43
2019-02-07T01:51:33.747Z,139.57
2019-02-07T01:54:02.977Z,143.70
2019-02-07T01:56:32.169Z,136.50
2019-02-07T01:59:01.383Z,135.43
2019-02-07T02:01:30.747Z,137.67
2019-02-07T02:03:59.959Z,142.23
2019-02-07T02:06:29.168Z,145.70
2019-02-07T02:08:58.583Z,144.63
2019-02-07T02:11:27.780Z,134.07
2019-02-07T02:13:56.976Z,134.47
2019-02-07T02:16:26.185Z,149.97
2019-02-07T02:18:55.492Z,142.03
2019-02-07T02:21:24.783Z,153.77
2019-02-07T02:23:54.079Z,165.30
2019-02-07T02:26:23.264Z,155.67
2019-02-07T02:28:52.471Z,164.07
2019-02-07T02:31:21.732Z,151.30
2019-02-07T02:33:50.952Z,151.63
2019-02-07T02:36:20.137Z,144.13
2019-02-07T02:38:49.667Z,166.60
2019-02-07T02:41:18.868Z,151.90
2019-02-07T02:43:48.073Z,148.17
2019-02-07T02:46:17.293Z,151.43
2019-02-07T02:48:46.588Z,156.93
2019-02-07T02:51:15.783Z,165.97
2019-02-07T02:53:45.320Z,151.57
2019-02-07T02:56:14.525Z,141.67
2019-02-07T02:58:43.726Z,158.50
2019-02-07T03:01:32.024Z,158.30
2019-02-07T03:04:35.354Z,146.23
2019-02-07T03:07:41.582Z,160.93
2019-02-07T03:10:27.753Z,147.87
2019-02-07T03:13:14.611Z,145.53
2019-02-07T03:15:58.357Z,145.93
2019-02-07T03:18:52.872Z,127.90
2019-02-07T03:21:41.973Z,132.63
2019-02-07T03:24:29.350Z,122.43
2019-02-07T03:27:20.392Z,131.10
2019-02-07T03:30:11.662Z,134.90
2019-02-07T03:33:15.027Z,125.27
2019-02-07T03:36:03.301Z,135.40
2019-02-07T03:38:54.631Z,133.40
2019-02-07T03:41:48.739Z,140.00
2019-02-07T03:44:34.041Z,134.40
2019-02-07T03:47:16.155Z,135.83
2019-02-07T03:50:13.320Z,119.53
2019-02-07T03:53:00.429Z,121.07
2019-02-07T03:55:51.533Z,106.90
2019-02-07T03:58:38.384Z,115.57
2019-02-07T04:01:25.639Z,99.30
2019-02-07T04:04:19.749Z,108.93
2019-02-07T04:06:58.801Z,110.27
2019-02-07T04:09:46.396Z,113.53
2019-02-07T04:12:53.083Z,107.33
2019-02-07T04:15:39.701Z,104.27
2019-02-07T04:18:36.848Z,110.37
2019-02-07T04:21:19.858Z,101.40
2019-02-07T04:24:23.578Z,93.33
2019-02-07T04:27:11.815Z,104.90
2019-02-07T04:30:15.158Z,105.17
2019-02-07T04:33:02.355Z,94.83
2019-02-07T04:36:03.061Z,103.43
2019-02-07T04:39:06.359Z,93.47
2019-02-07T04:42:12.884Z,100.27
2019-02-07T04:45:05.241Z,86.57
2019-02-07T04:47:53.537Z,91.40
2019-02-07T04:50:31.668Z,90.20
2019-02-07T04:53:34.976Z,90.73
2019-02-07T04:56:22.170Z,84.30
2019-02-07T04:59:16.429Z,95.53
2019-02-07T05:01:57.424Z,75.23
2019-02-07T05:04:51.994Z,85.97
2019-02-07T05:07:43.668Z,85.23
2019-02-07T05:10:31.944Z,87.20
2019-02-07T05:13:29.303Z,85.20
2019-02-07T05:16:16.496Z,87.00
2019-02-07T05:19:03.835Z,83.93
2019-02-07T05:21:57.257Z,80.07
2019-02-07T05:24:45.501Z,83.73
2019-02-07T05:27:49.216Z,76.10
2019-02-07T05:30:52.496Z,80.83
2019-02-07T05:33:55.980Z,77.70
2019-02-07T05:36:43.127Z,71.30
2019-02-07T05:39:30.129Z,90.43
2019-02-07T05:42:17.305Z,85.43
2019-02-07T05:45:04.903Z,79.33
2019-02-07T05:47:45.177Z,90.33
2019-02-07T05:50:32.768Z,70.83
2019-02-07T05:53:19.618Z,69.70
2019-02-07T05:56:16.069Z,76.40
2019-02-07T05:58:54.251Z,74.50
2019-02-07T06:01:43.319Z,73.23
2019-02-07T06:04:29.935Z,70.53
2019-02-07T06:07:30.428Z,56.97
2019-02-07T06:10:17.248Z,57.30
2019-02-07T06:13:08.561Z,69.30
2019-02-07T06:15:53.938Z,75.67
2019-02-07T06:18:48.266Z,74.47
2019-02-07T06:21:27.329Z,57.73
2019-02-07T06:24:18.418Z,59.93
2019-02-07T06:27:25.149Z,65.43
2019-02-07T06:30:08.074Z,65.17
2019-02-07T06:32:54.728Z,70.70
2019-02-07T06:35:48.832Z,74.57
2019-02-07T06:38:42.945Z,77.23
2019-02-07T06:41:30.520Z,65.70
2019-02-07T06:44:21.596Z,67.40
2019-02-07T06:47:01.521Z,68.23
2019-02-07T06:49:48.212Z,72.53
2019-02-07T06:52:35.539Z,66.30
2019-02-07T06:55:23.531Z,59.10
2019-02-07T06:58:15.764Z,67.80
2019-02-07T07:01:16.399Z,66.53
2019-02-07T07:03:57.417Z,66.20
2019-02-07T07:06:44.695Z,71.30
2019-02-07T07:09:24.405Z,69.23
2019-02-07T07:12:15.880Z,69.90
2019-02-07T07:15:06.943Z,65.13
2019-02-07T07:17:58.040Z,65.70
2019-02-07T07:20:48.794Z,61.03
2019-02-07T07:23:46.145Z,66.17
2019-02-07T07:26:34.568Z,59.43
2019-02-07T07:29:20.741Z,60.53
2019-02-07T07:32:27.633Z,60.53
2019-02-07T07:35:34.702Z,50.13
2019-02-07T07:38:28.959Z,59.43
2019-02-07T07:41:20.172Z,56.07
2019-02-07T07:44:07.144Z,51.83
2019-02-07T07:46:56.319Z,55.27
2019-02-07T07:49:43.196Z,50.83
2019-02-07T07:52:46.668Z,50.57
2019-02-07T07:55:33.974Z,49.93
2019-02-07T07:58:28.393Z,52.47
2019-02-07T08:01:15.532Z,45.63
2019-02-07T08:03:51.293Z,46.43
2019-02-07T08:06:29.088Z,46.93
2019-02-07T08:09:17.371Z,47.90
2019-02-07T08:12:03.915Z,50.13
2019-02-07T08:14:53.897Z,45.33
2019-02-07T08:17:51.848Z,44.10
2019-02-07T08:20:45.992Z,43.30
2019-02-07T08:23:26.036Z,46.60
2019-02-07T08:26:17.048Z,42.40
2019-02-07T08:29:08.084Z,39.90
2019-02-07T08:32:11.379Z,41.33
2019-02-07T08:34:52.914Z,37.23
2019-02-07T08:37:40.144Z,41.83
2019-02-07T08:40:43.147Z,43.80
2019-02-07T08:43:43.677Z,45.70
2019-02-07T08:46:44.089Z,39.40
2019-02-07T08:49:33.332Z,41.97
2019-02-07T08:52:30.834Z,40.17
2019-02-07T08:55:22.094Z,48.57
2019-02-07T08:58:09.410Z,48.23
2019-02-07T09:00:47.510Z,49.87
2019-02-07T09:03:38.876Z,44.90
2019-02-07T09:06:30.041Z,47.10
2019-02-07T09:09:27.549Z,50.57
2019-02-07T09:12:13.082Z,40.17
2019-02-07T09:15:01.807Z,52.17
2019-02-07T09:17:49.096Z,44.73
2019-02-07T09:20:28.080Z,49.40
2019-02-07T09:23:18.401Z,42.23
2019-02-07T09:26:09.489Z,47.20
2019-02-07T09:28:57.380Z,51.30
2019-02-07T09:31:50.031Z,40.00
2019-02-07T09:34:30.855Z,38.50
2019-02-07T09:37:14.583Z,42.43
2019-02-07T09:39:58.501Z,43.53
2019-02-07T09:42:46.784Z,44.43
2019-02-07T09:45:39.098Z,35.70
2019-02-07T09:48:21.955Z,39.07
2019-02-07T09:51:10.356Z,34.27
2019-02-07T09:54:04.369Z,50.30
2019-02-07T09:56:43.303Z,43.23
2019-02-07T09:59:30.805Z,41.13
2019-02-07T10:02:17.913Z,50.10
2019-02-07T10:05:09.236Z,46.10
2019-02-07T10:08:03.433Z,47.43
2019-02-07T10:11:00.863Z,43.77
2019-02-07T10:13:52.030Z,37.63
2019-02-07T10:16:46.307Z,44.77
2019-02-07T10:19:43.665Z,39.73
2019-02-07T10:22:31.920Z,41.87
2019-02-07T10:25:27.567Z,38.83
2019-02-07T10:28:14.779Z,41.17
2019-02-07T10:31:09.318Z,42.07
2019-02-07T10:33:54.728Z,37.30
2019-02-07T10:36:34.775Z,36.00
2019-02-07T10:39:23.041Z,38.50
2019-02-07T10:42:06.401Z,38.07
2019-02-07T10:44:54.662Z,34.50
2019-02-07T10:47:58.073Z,39.07
2019-02-07T10:50:49.203Z,39.30
2019-02-07T10:53:40.307Z,37.00
2019-02-07T10:56:20.351Z,35.10
2019-02-07T10:59:07.021Z,38.17
2019-02-07T11:01:58.121Z,42.53
2019-02-07T11:04:52.182Z,36.63
2019-02-07T11:07:39.596Z,38.27
2019-02-07T11:10:36.632Z,40.50
2019-02-07T11:13:25.016Z,40.80
2019-02-07T11:16:11.861Z,38.50
2019-02-07T11:19:21.064Z,34.90
2019-02-07T11:22:02.652Z,35.83
2019-02-07T11:24:46.124Z,35.83
2019-02-07T11:27:37.871Z,35.80
2019-02-07T11:30:29.085Z,36.10
2019-02-07T11:33:20.281Z,35.93
2019-02-07T11:36:12.172Z,33.37
2019-02-07T11:38:59.499Z,35.33
2019-02-07T11:41:50.588Z,32.00
2019-02-07T11:44:43.600Z,29.67
2019-02-07T11:47:31.941Z,22.10
2019-02-07T11:50:26.182Z,25.87
2019-02-07T11:53:14.196Z,28.20
2019-02-07T11:55:52.972Z,25.47
2019-02-07T11:58:37.859Z,27.27
2019-02-07T12:01:22.759Z,23.97
2019-02-07T12:04:10.296Z,21.43
2019-02-07T12:07:04.272Z,16.30
2019-02-07T12:09:54.368Z,22.27
2019-02-07T12:12:51.728Z,19.40
2019-02-07T12:15:33.008Z,21.50
2019-02-07T12:18:27.393Z,20.07
2019-02-07T12:21:14.341Z,24.33
2019-02-07T12:24:21.220Z,21.27
2019-02-07T12:27:04.587Z,19.27
2019-02-07T12:29:52.873Z,18.30
2019-02-07T12:32:43.937Z,19.73
2019-02-07T12:35:33.393Z,20.07
2019-02-07T12:38:20.680Z,17.63
2019-02-07T12:41:07.900Z,16.10
2019-02-07T12:43:56.152Z,20.90
2019-02-07T12:46:44.456Z,13.10
2019-02-07T12:49:33.502Z,14.93
2019-02-07T12:52:31.006Z,12.93
2019-02-07T12:55:09.858Z,15.50
2019-02-07T12:57:51.791Z,17.63
2019-02-07T13:00:45.836Z,14.47
2019-02-07T13:03:30.684Z,14.57
2019-02-07T13:06:14.217Z,14.23
2019-02-07T13:08:50.315Z,13.93
2019-02-07T13:11:56.965Z,12.90
2019-02-07T13:14:51.994Z,6.80
2019-02-07T13:17:53.110Z,9.67
2019-02-07T13:20:59.849Z,6.27
2019-02-07T13:24:00.141Z,7.70
2019-02-07T13:26:36.441Z,11.37
2019-02-07T13:29:24.070Z,6.90
2019-02-07T13:32:07.498Z,10.47
2019-02-07T13:34:54.746Z,9.83
2019-02-07T13:37:36.264Z,9.43
2019-02-07T13:40:24.097Z,9.17
2019-02-07T13:43:31.231Z,8.80
2019-02-07T13:46:19.848Z,9.37
2019-02-07T13:49:24.002Z,10.57
2019-02-07T13:52:11.056Z,8.33
2019-02-07T13:55:02.419Z,10.33
2019-02-07T13:57:48.997Z,12.30
2019-02-07T14:00:41.089Z,10.00
2019-02-07T14:03:22.804Z,9.77
2019-02-07T14:06:11.121Z,12.63
2019-02-07T14:09:17.893Z,8.77
2019-02-07T14:11:59.305Z,11.47
2019-02-07T14:14:57.016Z,6.47
2019-02-07T14:17:44.229Z,13.50
2019-02-07T14:20:31.468Z,5.80
2019-02-07T14:23:29.869Z,5.83
2019-02-07T14:26:16.988Z,10.17
2019-02-07T14:29:17.740Z,10.90
2019-02-07T14:32:06.136Z,8.90
2019-02-07T14:34:54.596Z,12.10
2019-02-07T14:37:37.381Z,12.70
2019-02-07T14:40:27.291Z,9.10
2019-02-07T14:43:33.846Z,10.63
2019-02-07T14:46:24.982Z,6.97
2019-02-07T14:48:54.440Z,7.70
2019-02-07T14:51:23.915Z,7.43
2019-02-07T14:53:53.165Z,14.20
2019-02-07T14:56:22.450Z,12.53
2019-02-07T14:58:51.964Z,14.43
2019-02-07T15:01:21.356Z,13.77
2019-02-07T15:03:50.752Z,11.43
2019-02-07T15:06:20.288Z,9.70
2019-02-07T15:08:49.764Z,11.70
2019-02-07T15:11:19.256Z,15.60
2019-02-07T15:13:48.967Z,14.07
2019-02-07T15:16:18.357Z,11.13
2019-02-07T15:18:47.884Z,13.00
2019-02-07T15:21:17.059Z,9.90
2019-02-07T15:23:46.257Z,12.17
2019-02-07T15:26:15.833Z,18.97
2019-02-07T15:28:45.331Z,12.73
2019-02-07T15:31:14.881Z,16.17
2019-02-07T15:33:44.261Z,11.87
2019-02-07T15:36:13.588Z,16.03
2019-02-07T15:38:43.089Z,13.73
2019-02-07T15:41:12.416Z,10.57
2019-02-07T15:43:42.063Z,8.73
2019-02-07T15:46:11.952Z,13.23
2019-02-07T15:48:41.381Z,11.90
2019-02-07T15:51:10.748Z,13.43
2019-02-07T15:53:40.236Z,13.20
2019-02-07T15:56:09.448Z,13.13
2019-02-07T15:58:56.960Z,13.60
2019-02-07T16:01:30.753Z,14.43
2019-02-07T16:04:17.845Z,12.47
2019-02-07T16:06:47.183Z,13.40
2019-02-07T16:09:18.139Z,14.57
2019-02-07T16:11:47.681Z,15.27
2019-02-07T16:14:17.114Z,13.43
2019-02-07T16:16:46.861Z,17.83
2019-02-07T16:19:17.166Z,13.57
2019-02-07T16:21:46.784Z,12.63
2019-02-07T16:24:17.068Z,10.77
2019-02-07T16:26:46.438Z,15.80
2019-02-07T16:29:16.031Z,15.80
2019-02-07T16:31:45.620Z,15.13
2019-02-07T16:34:15.740Z,13.00
2019-02-07T16:36:45.520Z,9.67
2019-02-07T16:39:16.081Z,13.67
2019-02-07T16:41:45.293Z,14.83
2019-02-07T16:44:15.727Z,9.97
2019-02-07T16:46:45.104Z,13.77
2019-02-07T16:49:14.683Z,10.23
2019-02-07T16:51:44.264Z,15.00
2019-02-07T16:54:13.678Z,12.87
2019-02-07T16:56:42.873Z,14.80
2019-02-07T16:59:12.193Z,9.73
2019-02-07T17:01:41.388Z,18.50
2019-02-07T17:04:10.625Z,12.27
2019-02-07T17:06:39.810Z,9.73
2019-02-07T17:09:26.768Z,13.90
2019-02-07T17:11:56.001Z,10.10
2019-02-07T17:14:25.408Z,14.83
2019-02-07T17:16:54.627Z,15.10
2019-02-07T17:19:23.841Z,13.00
2019-02-07T17:21:53.144Z,13.00
2019-02-07T17:24:22.372Z,16.50
2019-02-07T17:26:51.564Z,13.07
2019-02-07T17:29:21.185Z,13.77
2019-02-07T17:31:50.396Z,12.23
2019-02-07T17:34:19.600Z,11.60
2019-02-07T17:36:49.645Z,14.30
2019-02-07T17:39:18.859Z,16.57
2019-02-07T17:41:48.073Z,14.37
2019-02-07T17:44:17.308Z,24.90
2019-02-07T17:46:46.475Z,9.63
2019-02-07T17:49:15.677Z,16.50
2019-02-07T17:51:44.876Z,12.67
2019-02-07T17:54:18.793Z,11.63
2019-02-07T17:56:45.032Z,7.47
2019-02-07T17:59:14.321Z,11.50
2019-02-07T18:01:43.688Z,15.20
2019-02-07T18:04:12.896Z,13.50
2019-02-07T18:06:42.101Z,11.80
2019-02-07T18:09:11.316Z,8.33
2019-02-07T18:11:40.517Z,4.20
2019-02-07T18:14:09.857Z,14.37
2019-02-07T18:16:38.984Z,11.80
2019-02-07T18:19:08.225Z,13.57
2019-02-07T18:21:37.668Z,12.63
2019-02-07T18:24:07.072Z,9.53
2019-02-07T18:26:36.293Z,17.13
2019-02-07T18:29:05.489Z,10.63
2019-02-07T18:31:35.053Z,12.27
2019-02-07T18:34:04.664Z,10.77
2019-02-07T18:36:33.856Z,5.23
2019-02-07T18:39:03.313Z,11.10
2019-02-07T18:41:32.537Z,13.10
2019-02-07T18:44:01.750Z,9.30
2019-02-07T18:46:31.156Z,10.47
2019-02-07T18:49:00.529Z,8.57
2019-02-07T18:51:29.737Z,15.00
2019-02-07T18:53:59.235Z,4.77
2019-02-07T18:56:28.445Z,10.73
2019-02-07T18:58:57.649Z,11.93
2019-02-07T19:01:27.282Z,7.60
2019-02-07T19:03:56.478Z,9.53
2019-02-07T19:06:25.687Z,10.57
2019-02-07T19:08:54.920Z,8.63
2019-02-07T19:11:24.180Z,12.83
2019-02-07T19:13:53.356Z,8.83
2019-02-07T19:16:22.605Z,5.07
2019-02-07T19:18:51.820Z,9.83
2019-02-07T19:21:21.096Z,5.33
2019-02-07T19:23:50.317Z,9.17
2019-02-07T19:26:19.524Z,5.53
2019-02-07T19:28:48.713Z,7.63
2019-02-07T19:31:18.024Z,5.33
2019-02-07T19:33:47.403Z,6.87
2019-02-07T19:36:16.600Z,8.43
2019-02-07T19:38:45.934Z,11.83
2019-02-07T19:41:15.123Z,10.67
2019-02-07T19:43:45.574Z,8.10
2019-02-07T19:46:15.003Z,10.27
2019-02-07T19:48:44.503Z,8.70
2019-02-07T19:51:13.831Z,9.23
2019-02-07T19:53:43.074Z,6.33
2019-02-07T19:56:12.264Z,7.10
2019-02-07T19:58:41.460Z,6.23
2019-02-07T20:01:10.676Z,11.10
2019-02-07T20:03:39.980Z,2.10
2019-02-07T20:06:09.244Z,11.37
2019-02-07T20:08:38.606Z,2.40
2019-02-07T20:11:07.804Z,8.90
2019-02-07T20:13:37.098Z,9.17
2019-02-07T20:16:06.404Z,11.13
2019-02-07T20:18:35.632Z,19.13
2019-02-07T20:21:05.020Z,7.27
2019-02-07T20:23:34.218Z,5.80
2019-02-07T20:26:03.467Z,3.47
2019-02-07T20:28:32.695Z,5.40
2019-02-07T20:31:01.888Z,7.07
2019-02-07T20:33:31.066Z,4.83
2019-02-07T20:36:00.284Z,4.87
2019-02-07T20:38:29.490Z,2.47
2019-02-07T20:40:58.717Z,4.67
2019-02-07T20:43:27.952Z,4.07
2019-02-07T20:45:57.147Z,4.23
2019-02-07T20:48:26.396Z,6.87
2019-02-07T20:50:55.585Z,5.33
2019-02-07T20:53:24.788Z,4.43
2019-02-07T20:55:54.021Z,1.97
2019-02-07T20:58:23.239Z,3.70
2019-02-07T21:00:52.427Z,2.20
2019-02-07T21:03:21.913Z,6.57
2019-02-07T21:05:51.861Z,7.93
2019-02-07T21:08:21.256Z,1.17
2019-02-07T21:10:51.200Z,5.73
2019-02-07T21:13:20.718Z,5.30
2019-02-07T21:15:50.205Z,3.37
2019-02-07T21:18:20.224Z,4.67
2019-02-07T21:20:49.845Z,5.40
2019-02-07T21:23:19.268Z,3.47
2019-02-07T21:25:50.866Z,6.17
2019-02-07T21:28:20.715Z,2.93
2019-02-07T21:30:50.568Z,2.13
2019-02-07T21:33:20.234Z,5.90
2019-02-07T21:35:49.962Z,7.77
2019-02-07T21:38:19.567Z,5.10
2019-02-07T21:40:49.210Z,6.70
2019-02-07T21:43:18.901Z,7.00
2019-02-07T21:45:48.697Z,5.70
2019-02-07T21:48:18.349Z,5.97
2019-02-07T21:50:47.895Z,6.00
2019-02-07T21:53:18.210Z,5.80
2019-02-07T21:55:48.108Z,5.13
2019-02-07T21:58:18.301Z,5.60
2019-02-07T22:00:47.932Z,6.23
2019-02-07T22:03:17.504Z,7.13
2019-02-07T22:05:46.780Z,8.43
2019-02-07T22:08:16.003Z,6.70
2019-02-07T22:10:45.317Z,6.53
2019-02-07T22:13:14.948Z,7.10
2019-02-07T22:15:44.180Z,6.43
2019-02-07T22:18:13.368Z,6.50
2019-02-07T22:20:42.561Z,5.50
2019-02-07T22:23:11.799Z,5.00
2019-02-07T22:25:40.987Z,5.63
2019-02-07T22:28:10.767Z,3.27
2019-02-07T22:30:40.009Z,4.47
2019-02-07T22:33:10.126Z,3.37
2019-02-07T22:35:39.292Z,4.77
2019-02-07T22:38:09.853Z,5.80
2019-02-07T22:40:39.148Z,5.60
2019-02-07T22:43:08.765Z,8.03
2019-02-07T22:45:37.992Z,8.00
2019-02-07T22:48:07.772Z,5.47
2019-02-07T22:50:36.977Z,7.37
2019-02-07T22:53:06.217Z,5.60
2019-02-07T22:55:35.407Z,6.83
2019-02-07T22:58:06.420Z,6.03
2019-02-07T23:01:26.204Z,2.80
2019-02-07T23:03:57.679Z,6.73
2019-02-07T23:06:26.896Z,7.17
2019-02-07T23:08:56.367Z,4.50
2019-02-07T23:11:25.573Z,6.80
2019-02-07T23:13:54.748Z,8.30
2019-02-07T23:16:24.175Z,4.33
2019-02-07T23:18:54.950Z,4.87
2019-02-07T23:21:24.175Z,6.23
2019-02-07T23:23:53.397Z,6.47
2019-02-07T23:26:22.592Z,6.57
2019-02-07T23:28:51.800Z,6.93
2019-02-07T23:31:21.029Z,7.57
2019-02-07T23:33:50.336Z,6.50
2019-02-07T23:36:19.511Z,5.47
2019-02-07T23:38:48.841Z,5.07
2019-02-07T23:41:18.044Z,5.70
2019-02-07T23:43:47.240Z,5.47
2019-02-07T23:46:16.491Z,5.37
2019-02-07T23:48:45.980Z,7.07
2019-02-07T23:51:15.179Z,10.00
2019-02-07T23:53:44.484Z,6.33
2019-02-07T23:56:13.681Z,5.10
2019-02-07T23:58:42.860Z,5.83
